sensor_id;sensor_type;location;lat;lon;timestamp;temperature;humidity
59975;DHT22;62136;-35.664;-63.766;2023-04-25T00:00:56;23.30;55.60
59975;DHT22;62136;-35.664;-63.766;2023-04-25T00:03:23;23.30;55.50
59975;DHT22;62136;-35.664;-63.766;2023-04-25T00:05:51;23.30;55.30
59975;DHT22;62136;-35.664;-63.766;2023-04-25T00:08:18;23.30;55.40
59975;DHT22;62136;-35.664;-63.766;2023-04-25T00:10:45;23.30;55.40
59975;DHT22;62136;-35.664;-63.766;2023-04-25T00:13:12;23.30;55.60
59975;DHT22;62136;-35.664;-63.766;2023-04-25T00:15:41;23.40;56.00
59975;DHT22;62136;-35.664;-63.766;2023-04-25T00:18:08;23.40;56.00
59975;DHT22;62136;-35.664;-63.766;2023-04-25T00:20:36;23.40;56.20
59975;DHT22;62136;-35.664;-63.766;2023-04-25T00:23:03;23.40;56.80
59975;DHT22;62136;-35.664;-63.766;2023-04-25T00:25:30;23.40;56.90
59975;DHT22;62136;-35.664;-63.766;2023-04-25T00:27:57;23.40;57.10
59975;DHT22;62136;-35.664;-63.766;2023-04-25T00:30:24;23.40;57.60
59975;DHT22;62136;-35.664;-63.766;2023-04-25T00:32:51;23.40;58.10
59975;DHT22;62136;-35.664;-63.766;2023-04-25T00:35:18;23.50;58.30
59975;DHT22;62136;-35.664;-63.766;2023-04-25T00:37:46;23.40;58.40
59975;DHT22;62136;-35.664;-63.766;2023-04-25T00:40:13;23.40;58.80
59975;DHT22;62136;-35.664;-63.766;2023-04-25T00:42:41;23.40;58.80
59975;DHT22;62136;-35.664;-63.766;2023-04-25T00:45:12;23.40;58.60
59975;DHT22;62136;-35.664;-63.766;2023-04-25T00:47:41;23.40;59.20
59975;DHT22;62136;-35.664;-63.766;2023-04-25T00:50:09;23.40;59.30
59975;DHT22;62136;-35.664;-63.766;2023-04-25T00:52:38;23.30;59.40
59975;DHT22;62136;-35.664;-63.766;2023-04-25T00:55:07;23.30;59.20
59975;DHT22;62136;-35.664;-63.766;2023-04-25T00:57:35;23.30;58.90
59975;DHT22;62136;-35.664;-63.766;2023-04-25T01:00:03;23.30;59.10
59975;DHT22;62136;-35.664;-63.766;2023-04-25T01:02:33;23.30;59.00
59975;DHT22;62136;-35.664;-63.766;2023-04-25T01:05:00;23.30;59.00
59975;DHT22;62136;-35.664;-63.766;2023-04-25T01:07:27;23.30;59.10
59975;DHT22;62136;-35.664;-63.766;2023-04-25T01:09:54;23.30;59.60
59975;DHT22;62136;-35.664;-63.766;2023-04-25T01:12:22;23.20;59.60
59975;DHT22;62136;-35.664;-63.766;2023-04-25T01:14:49;23.30;59.60
59975;DHT22;62136;-35.664;-63.766;2023-04-25T01:17:17;23.20;60.10
59975;DHT22;62136;-35.664;-63.766;2023-04-25T01:19:44;23.20;59.40
59975;DHT22;62136;-35.664;-63.766;2023-04-25T01:22:14;23.20;59.60
59975;DHT22;62136;-35.664;-63.766;2023-04-25T01:24:42;23.10;59.30
59975;DHT22;62136;-35.664;-63.766;2023-04-25T01:27:12;23.10;59.10
59975;DHT22;62136;-35.664;-63.766;2023-04-25T01:29:39;23.00;58.80
59975;DHT22;62136;-35.664;-63.766;2023-04-25T01:32:06;23.00;58.80
59975;DHT22;62136;-35.664;-63.766;2023-04-25T01:34:34;23.00;58.80
59975;DHT22;62136;-35.664;-63.766;2023-04-25T01:37:01;23.00;58.80
59975;DHT22;62136;-35.664;-63.766;2023-04-25T01:39:28;22.90;58.60
59975;DHT22;62136;-35.664;-63.766;2023-04-25T01:41:56;22.90;58.80
59975;DHT22;62136;-35.664;-63.766;2023-04-25T01:44:23;22.90;58.70
59975;DHT22;62136;-35.664;-63.766;2023-04-25T01:46:50;22.80;58.60
59975;DHT22;62136;-35.664;-63.766;2023-04-25T01:49:17;22.80;58.70
59975;DHT22;62136;-35.664;-63.766;2023-04-25T01:51:47;22.80;58.70
59975;DHT22;62136;-35.664;-63.766;2023-04-25T01:54:14;22.80;58.70
59975;DHT22;62136;-35.664;-63.766;2023-04-25T01:56:41;22.70;58.60
59975;DHT22;62136;-35.664;-63.766;2023-04-25T01:59:11;22.70;58.60
59975;DHT22;62136;-35.664;-63.766;2023-04-25T02:01:41;22.70;58.60
59975;DHT22;62136;-35.664;-63.766;2023-04-25T02:04:08;22.70;58.60
59975;DHT22;62136;-35.664;-63.766;2023-04-25T02:06:35;22.60;58.70
59975;DHT22;62136;-35.664;-63.766;2023-04-25T02:09:02;22.60;58.80
59975;DHT22;62136;-35.664;-63.766;2023-04-25T02:11:29;22.60;58.70
59975;DHT22;62136;-35.664;-63.766;2023-04-25T02:13:56;22.50;58.70
59975;DHT22;62136;-35.664;-63.766;2023-04-25T02:16:23;22.50;58.80
59975;DHT22;62136;-35.664;-63.766;2023-04-25T02:18:51;22.50;58.80
59975;DHT22;62136;-35.664;-63.766;2023-04-25T02:21:19;22.50;58.70
59975;DHT22;62136;-35.664;-63.766;2023-04-25T02:23:46;22.50;59.20
59975;DHT22;62136;-35.664;-63.766;2023-04-25T02:26:15;22.40;58.70
59975;DHT22;62136;-35.664;-63.766;2023-04-25T02:28:42;22.40;58.70
59975;DHT22;62136;-35.664;-63.766;2023-04-25T02:31:09;22.40;58.60
59975;DHT22;62136;-35.664;-63.766;2023-04-25T02:33:36;22.40;58.80
59975;DHT22;62136;-35.664;-63.766;2023-04-25T02:36:03;22.40;58.70
59975;DHT22;62136;-35.664;-63.766;2023-04-25T02:38:33;22.40;58.70
59975;DHT22;62136;-35.664;-63.766;2023-04-25T02:41:00;22.40;58.60
59975;DHT22;62136;-35.664;-63.766;2023-04-25T02:43:27;22.30;58.60
59975;DHT22;62136;-35.664;-63.766;2023-04-25T02:45:54;22.30;58.60
59975;DHT22;62136;-35.664;-63.766;2023-04-25T02:48:21;22.30;58.60
59975;DHT22;62136;-35.664;-63.766;2023-04-25T02:50:48;22.30;58.60
59975;DHT22;62136;-35.664;-63.766;2023-04-25T02:53:16;22.30;58.60
59975;DHT22;62136;-35.664;-63.766;2023-04-25T02:55:43;22.30;58.70
59975;DHT22;62136;-35.664;-63.766;2023-04-25T02:58:10;22.30;58.60
59975;DHT22;62136;-35.664;-63.766;2023-04-25T03:00:37;22.30;58.50
59975;DHT22;62136;-35.664;-63.766;2023-04-25T03:03:04;22.20;58.50
59975;DHT22;62136;-35.664;-63.766;2023-04-25T03:05:31;22.20;58.50
59975;DHT22;62136;-35.664;-63.766;2023-04-25T03:07:58;22.20;58.50
59975;DHT22;62136;-35.664;-63.766;2023-04-25T03:10:25;22.20;58.50
59975;DHT22;62136;-35.664;-63.766;2023-04-25T03:12:55;22.20;58.40
59975;DHT22;62136;-35.664;-63.766;2023-04-25T03:15:22;22.20;58.40
59975;DHT22;62136;-35.664;-63.766;2023-04-25T03:17:52;22.20;58.40
59975;DHT22;62136;-35.664;-63.766;2023-04-25T03:20:19;22.20;58.40
59975;DHT22;62136;-35.664;-63.766;2023-04-25T03:22:46;22.20;58.40
59975;DHT22;62136;-35.664;-63.766;2023-04-25T03:25:13;22.20;58.30
59975;DHT22;62136;-35.664;-63.766;2023-04-25T03:27:40;22.20;58.30
59975;DHT22;62136;-35.664;-63.766;2023-04-25T03:30:08;22.20;58.20
59975;DHT22;62136;-35.664;-63.766;2023-04-25T03:32:35;22.20;58.20
59975;DHT22;62136;-35.664;-63.766;2023-04-25T03:35:02;22.20;58.30
59975;DHT22;62136;-35.664;-63.766;2023-04-25T03:37:30;22.20;58.30
59975;DHT22;62136;-35.664;-63.766;2023-04-25T03:39:57;22.20;58.20
59975;DHT22;62136;-35.664;-63.766;2023-04-25T03:42:24;22.10;58.20
59975;DHT22;62136;-35.664;-63.766;2023-04-25T03:44:52;22.20;58.20
59975;DHT22;62136;-35.664;-63.766;2023-04-25T03:47:19;22.10;58.10
59975;DHT22;62136;-35.664;-63.766;2023-04-25T03:49:46;22.10;58.20
59975;DHT22;62136;-35.664;-63.766;2023-04-25T03:52:13;22.10;58.10
59975;DHT22;62136;-35.664;-63.766;2023-04-25T03:54:40;22.10;58.10
59975;DHT22;62136;-35.664;-63.766;2023-04-25T03:57:07;22.10;58.10
59975;DHT22;62136;-35.664;-63.766;2023-04-25T03:59:34;22.10;58.00
59975;DHT22;62136;-35.664;-63.766;2023-04-25T04:02:01;22.10;58.10
59975;DHT22;62136;-35.664;-63.766;2023-04-25T04:04:28;22.10;58.20
59975;DHT22;62136;-35.664;-63.766;2023-04-25T04:06:56;22.10;58.10
59975;DHT22;62136;-35.664;-63.766;2023-04-25T04:09:23;22.00;58.00
59975;DHT22;62136;-35.664;-63.766;2023-04-25T04:11:50;22.10;58.00
59975;DHT22;62136;-35.664;-63.766;2023-04-25T04:14:17;22.10;58.00
59975;DHT22;62136;-35.664;-63.766;2023-04-25T04:16:44;22.00;58.00
59975;DHT22;62136;-35.664;-63.766;2023-04-25T04:19:11;22.00;58.00
59975;DHT22;62136;-35.664;-63.766;2023-04-25T04:21:38;22.00;58.00
59975;DHT22;62136;-35.664;-63.766;2023-04-25T04:24:06;22.00;58.00
59975;DHT22;62136;-35.664;-63.766;2023-04-25T04:26:33;21.90;57.90
59975;DHT22;62136;-35.664;-63.766;2023-04-25T04:29:00;21.90;58.40
59975;DHT22;62136;-35.664;-63.766;2023-04-25T04:31:27;21.90;58.00
59975;DHT22;62136;-35.664;-63.766;2023-04-25T04:33:56;21.90;58.00
59975;DHT22;62136;-35.664;-63.766;2023-04-25T04:36:23;21.90;57.90
59975;DHT22;62136;-35.664;-63.766;2023-04-25T04:38:52;21.90;57.90
59975;DHT22;62136;-35.664;-63.766;2023-04-25T04:41:20;21.90;58.00
59975;DHT22;62136;-35.664;-63.766;2023-04-25T04:43:47;21.90;58.00
59975;DHT22;62136;-35.664;-63.766;2023-04-25T04:46:14;21.90;57.90
59975;DHT22;62136;-35.664;-63.766;2023-04-25T04:48:42;21.90;57.90
59975;DHT22;62136;-35.664;-63.766;2023-04-25T04:51:10;21.80;57.80
59975;DHT22;62136;-35.664;-63.766;2023-04-25T04:53:37;21.80;57.80
59975;DHT22;62136;-35.664;-63.766;2023-04-25T04:56:05;21.80;57.80
59975;DHT22;62136;-35.664;-63.766;2023-04-25T04:58:32;21.80;57.80
59975;DHT22;62136;-35.664;-63.766;2023-04-25T05:00:59;21.80;57.70
59975;DHT22;62136;-35.664;-63.766;2023-04-25T05:03:26;21.80;57.60
59975;DHT22;62136;-35.664;-63.766;2023-04-25T05:05:54;21.80;57.70
59975;DHT22;62136;-35.664;-63.766;2023-04-25T05:08:21;21.70;57.60
59975;DHT22;62136;-35.664;-63.766;2023-04-25T05:10:48;21.80;57.60
59975;DHT22;62136;-35.664;-63.766;2023-04-25T05:13:15;21.80;57.70
59975;DHT22;62136;-35.664;-63.766;2023-04-25T05:15:42;21.70;57.50
59975;DHT22;62136;-35.664;-63.766;2023-04-25T05:18:09;21.70;57.50
59975;DHT22;62136;-35.664;-63.766;2023-04-25T05:20:36;21.70;57.60
59975;DHT22;62136;-35.664;-63.766;2023-04-25T05:23:03;21.70;57.60
59975;DHT22;62136;-35.664;-63.766;2023-04-25T05:25:31;21.70;57.60
59975;DHT22;62136;-35.664;-63.766;2023-04-25T05:27:58;21.70;57.60
59975;DHT22;62136;-35.664;-63.766;2023-04-25T05:30:25;21.70;57.60
59975;DHT22;62136;-35.664;-63.766;2023-04-25T05:32:52;21.70;57.60
59975;DHT22;62136;-35.664;-63.766;2023-04-25T05:35:19;21.70;57.60
59975;DHT22;62136;-35.664;-63.766;2023-04-25T05:37:46;21.60;57.50
59975;DHT22;62136;-35.664;-63.766;2023-04-25T05:40:13;21.60;57.60
59975;DHT22;62136;-35.664;-63.766;2023-04-25T05:42:40;21.60;57.60
59975;DHT22;62136;-35.664;-63.766;2023-04-25T05:45:07;21.60;57.60
59975;DHT22;62136;-35.664;-63.766;2023-04-25T05:47:35;21.60;57.50
59975;DHT22;62136;-35.664;-63.766;2023-04-25T05:50:02;21.60;57.60
59975;DHT22;62136;-35.664;-63.766;2023-04-25T05:52:29;21.60;57.60
59975;DHT22;62136;-35.664;-63.766;2023-04-25T05:54:56;21.60;57.60
59975;DHT22;62136;-35.664;-63.766;2023-04-25T05:57:26;21.50;57.50
59975;DHT22;62136;-35.664;-63.766;2023-04-25T05:59:54;21.50;57.40
59975;DHT22;62136;-35.664;-63.766;2023-04-25T06:02:21;21.50;57.50
59975;DHT22;62136;-35.664;-63.766;2023-04-25T06:04:52;21.50;57.50
59975;DHT22;62136;-35.664;-63.766;2023-04-25T06:07:22;21.50;57.60
59975;DHT22;62136;-35.664;-63.766;2023-04-25T06:09:49;21.50;57.60
59975;DHT22;62136;-35.664;-63.766;2023-04-25T06:12:16;21.50;57.60
59975;DHT22;62136;-35.664;-63.766;2023-04-25T06:14:43;21.50;57.70
59975;DHT22;62136;-35.664;-63.766;2023-04-25T06:17:10;21.50;57.60
59975;DHT22;62136;-35.664;-63.766;2023-04-25T06:19:37;21.50;57.70
59975;DHT22;62136;-35.664;-63.766;2023-04-25T06:22:04;21.40;57.60
59975;DHT22;62136;-35.664;-63.766;2023-04-25T06:24:31;21.40;57.60
59975;DHT22;62136;-35.664;-63.766;2023-04-25T06:26:59;21.40;57.70
59975;DHT22;62136;-35.664;-63.766;2023-04-25T06:29:26;21.30;57.70
59975;DHT22;62136;-35.664;-63.766;2023-04-25T06:31:53;21.40;57.70
59975;DHT22;62136;-35.664;-63.766;2023-04-25T06:34:20;21.30;57.70
59975;DHT22;62136;-35.664;-63.766;2023-04-25T06:36:47;21.40;57.80
59975;DHT22;62136;-35.664;-63.766;2023-04-25T06:39:14;21.30;57.80
59975;DHT22;62136;-35.664;-63.766;2023-04-25T06:41:42;21.30;57.80
59975;DHT22;62136;-35.664;-63.766;2023-04-25T06:44:09;21.30;57.90
59975;DHT22;62136;-35.664;-63.766;2023-04-25T06:46:36;21.30;57.90
59975;DHT22;62136;-35.664;-63.766;2023-04-25T06:49:03;21.30;57.80
59975;DHT22;62136;-35.664;-63.766;2023-04-25T06:51:31;21.30;57.80
59975;DHT22;62136;-35.664;-63.766;2023-04-25T06:53:58;21.20;57.80
59975;DHT22;62136;-35.664;-63.766;2023-04-25T06:56:26;21.20;57.90
59975;DHT22;62136;-35.664;-63.766;2023-04-25T06:58:54;21.20;57.90
59975;DHT22;62136;-35.664;-63.766;2023-04-25T07:01:21;21.20;58.30
59975;DHT22;62136;-35.664;-63.766;2023-04-25T07:03:48;21.20;58.00
59975;DHT22;62136;-35.664;-63.766;2023-04-25T07:06:15;21.20;57.90
59975;DHT22;62136;-35.664;-63.766;2023-04-25T07:08:42;21.20;58.00
59975;DHT22;62136;-35.664;-63.766;2023-04-25T07:11:09;21.20;57.90
59975;DHT22;62136;-35.664;-63.766;2023-04-25T07:13:36;21.10;57.90
59975;DHT22;62136;-35.664;-63.766;2023-04-25T07:16:04;21.10;57.90
59975;DHT22;62136;-35.664;-63.766;2023-04-25T07:18:31;21.10;57.90
59975;DHT22;62136;-35.664;-63.766;2023-04-25T07:20:58;21.10;58.00
59975;DHT22;62136;-35.664;-63.766;2023-04-25T07:23:25;21.10;58.00
59975;DHT22;62136;-35.664;-63.766;2023-04-25T07:25:52;21.10;58.00
59975;DHT22;62136;-35.664;-63.766;2023-04-25T07:28:19;21.00;58.00
59975;DHT22;62136;-35.664;-63.766;2023-04-25T07:30:46;21.00;58.00
59975;DHT22;62136;-35.664;-63.766;2023-04-25T07:33:13;21.00;58.00
59975;DHT22;62136;-35.664;-63.766;2023-04-25T07:35:40;21.10;58.00
59975;DHT22;62136;-35.664;-63.766;2023-04-25T07:38:07;21.00;58.00
59975;DHT22;62136;-35.664;-63.766;2023-04-25T07:40:36;21.00;58.00
59975;DHT22;62136;-35.664;-63.766;2023-04-25T07:43:03;21.00;58.00
59975;DHT22;62136;-35.664;-63.766;2023-04-25T07:45:30;21.00;58.50
59975;DHT22;62136;-35.664;-63.766;2023-04-25T07:47:57;21.00;58.00
59975;DHT22;62136;-35.664;-63.766;2023-04-25T07:50:24;20.90;58.00
59975;DHT22;62136;-35.664;-63.766;2023-04-25T07:52:51;20.90;58.00
59975;DHT22;62136;-35.664;-63.766;2023-04-25T07:55:18;20.90;58.00
59975;DHT22;62136;-35.664;-63.766;2023-04-25T07:57:45;20.90;58.10
59975;DHT22;62136;-35.664;-63.766;2023-04-25T08:00:13;20.90;58.10
59975;DHT22;62136;-35.664;-63.766;2023-04-25T08:02:41;20.90;58.10
59975;DHT22;62136;-35.664;-63.766;2023-04-25T08:05:08;20.90;58.10
59975;DHT22;62136;-35.664;-63.766;2023-04-25T08:07:38;20.90;58.10
59975;DHT22;62136;-35.664;-63.766;2023-04-25T08:10:06;20.80;58.00
59975;DHT22;62136;-35.664;-63.766;2023-04-25T08:12:33;20.80;58.00
59975;DHT22;62136;-35.664;-63.766;2023-04-25T08:15:00;20.80;58.00
59975;DHT22;62136;-35.664;-63.766;2023-04-25T08:17:28;20.80;57.90
59975;DHT22;62136;-35.664;-63.766;2023-04-25T08:19:55;20.80;58.00
59975;DHT22;62136;-35.664;-63.766;2023-04-25T08:22:23;20.80;58.00
59975;DHT22;62136;-35.664;-63.766;2023-04-25T08:24:50;20.80;58.00
59975;DHT22;62136;-35.664;-63.766;2023-04-25T08:27:18;20.80;58.00
59975;DHT22;62136;-35.664;-63.766;2023-04-25T08:29:47;20.70;58.00
59975;DHT22;62136;-35.664;-63.766;2023-04-25T08:32:14;20.70;58.00
59975;DHT22;62136;-35.664;-63.766;2023-04-25T08:34:41;20.70;58.00
59975;DHT22;62136;-35.664;-63.766;2023-04-25T08:37:10;20.70;58.00
59975;DHT22;62136;-35.664;-63.766;2023-04-25T08:39:37;20.70;58.00
59975;DHT22;62136;-35.664;-63.766;2023-04-25T08:42:06;20.70;58.00
59975;DHT22;62136;-35.664;-63.766;2023-04-25T08:44:36;20.70;58.00
59975;DHT22;62136;-35.664;-63.766;2023-04-25T08:47:05;20.70;58.40
59975;DHT22;62136;-35.664;-63.766;2023-04-25T08:49:32;20.70;58.00
59975;DHT22;62136;-35.664;-63.766;2023-04-25T08:52:02;20.60;57.90
59975;DHT22;62136;-35.664;-63.766;2023-04-25T08:54:31;20.60;57.90
59975;DHT22;62136;-35.664;-63.766;2023-04-25T08:57:02;20.60;57.90
59975;DHT22;62136;-35.664;-63.766;2023-04-25T08:59:31;20.60;57.90
59975;DHT22;62136;-35.664;-63.766;2023-04-25T09:01:58;20.60;57.90
59975;DHT22;62136;-35.664;-63.766;2023-04-25T09:04:25;20.60;57.90
59975;DHT22;62136;-35.664;-63.766;2023-04-25T09:06:52;20.60;57.80
59975;DHT22;62136;-35.664;-63.766;2023-04-25T09:09:19;20.60;57.80
59975;DHT22;62136;-35.664;-63.766;2023-04-25T09:11:47;20.50;57.80
59975;DHT22;62136;-35.664;-63.766;2023-04-25T09:14:19;20.50;57.80
59975;DHT22;62136;-35.664;-63.766;2023-04-25T09:19:30;20.50;57.70
59975;DHT22;62136;-35.664;-63.766;2023-04-25T09:21:59;20.50;57.70
59975;DHT22;62136;-35.664;-63.766;2023-04-25T09:24:45;20.50;57.70
59975;DHT22;62136;-35.664;-63.766;2023-04-25T09:27:17;20.50;57.70
59975;DHT22;62136;-35.664;-63.766;2023-04-25T09:29:45;20.50;57.60
59975;DHT22;62136;-35.664;-63.766;2023-04-25T09:34:40;20.40;57.50
59975;DHT22;62136;-35.664;-63.766;2023-04-25T09:37:09;20.40;57.20
59975;DHT22;62136;-35.664;-63.766;2023-04-25T09:39:40;20.40;57.60
59975;DHT22;62136;-35.664;-63.766;2023-04-25T09:42:09;20.40;57.50
59975;DHT22;62136;-35.664;-63.766;2023-04-25T09:44:36;20.30;57.40
59975;DHT22;62136;-35.664;-63.766;2023-04-25T09:47:03;20.30;57.40
59975;DHT22;62136;-35.664;-63.766;2023-04-25T09:49:30;20.30;57.40
59975;DHT22;62136;-35.664;-63.766;2023-04-25T09:51:58;20.30;57.40
59975;DHT22;62136;-35.664;-63.766;2023-04-25T09:54:26;20.30;57.40
59975;DHT22;62136;-35.664;-63.766;2023-04-25T09:56:54;20.30;57.40
59975;DHT22;62136;-35.664;-63.766;2023-04-25T09:59:22;20.30;57.40
59975;DHT22;62136;-35.664;-63.766;2023-04-25T10:01:50;20.30;57.30
59975;DHT22;62136;-35.664;-63.766;2023-04-25T10:04:24;20.20;57.20
59975;DHT22;62136;-35.664;-63.766;2023-04-25T10:06:53;20.20;57.20
59975;DHT22;62136;-35.664;-63.766;2023-04-25T10:09:25;20.20;57.20
59975;DHT22;62136;-35.664;-63.766;2023-04-25T10:11:56;20.20;57.20
59975;DHT22;62136;-35.664;-63.766;2023-04-25T10:14:24;20.20;57.20
59975;DHT22;62136;-35.664;-63.766;2023-04-25T10:16:52;20.10;57.10
59975;DHT22;62136;-35.664;-63.766;2023-04-25T10:19:24;20.20;57.10
59975;DHT22;62136;-35.664;-63.766;2023-04-25T10:22:05;20.20;57.10
59975;DHT22;62136;-35.664;-63.766;2023-04-25T10:24:37;20.10;57.00
59975;DHT22;62136;-35.664;-63.766;2023-04-25T10:27:05;20.10;57.00
59975;DHT22;62136;-35.664;-63.766;2023-04-25T10:29:32;20.10;57.00
59975;DHT22;62136;-35.664;-63.766;2023-04-25T10:31:59;20.10;57.00
59975;DHT22;62136;-35.664;-63.766;2023-04-25T10:34:40;20.10;57.00
59975;DHT22;62136;-35.664;-63.766;2023-04-25T10:37:11;20.00;56.90
59975;DHT22;62136;-35.664;-63.766;2023-04-25T10:39:42;20.00;56.90
59975;DHT22;62136;-35.664;-63.766;2023-04-25T10:42:10;20.10;56.90
59975;DHT22;62136;-35.664;-63.766;2023-04-25T10:44:38;20.00;56.80
59975;DHT22;62136;-35.664;-63.766;2023-04-25T10:47:07;20.00;56.80
59975;DHT22;62136;-35.664;-63.766;2023-04-25T10:49:37;20.00;56.80
59975;DHT22;62136;-35.664;-63.766;2023-04-25T10:55:02;20.00;56.80
59975;DHT22;62136;-35.664;-63.766;2023-04-25T10:57:45;20.00;56.70
59975;DHT22;62136;-35.664;-63.766;2023-04-25T11:00:19;20.00;56.60
59975;DHT22;62136;-35.664;-63.766;2023-04-25T11:02:52;19.90;56.50
59975;DHT22;62136;-35.664;-63.766;2023-04-25T11:05:30;20.00;56.90
59975;DHT22;62136;-35.664;-63.766;2023-04-25T11:08:11;19.90;56.50
59975;DHT22;62136;-35.664;-63.766;2023-04-25T11:10:42;19.90;56.50
59975;DHT22;62136;-35.664;-63.766;2023-04-25T11:13:09;19.90;56.50
59975;DHT22;62136;-35.664;-63.766;2023-04-25T11:15:38;19.90;56.60
59975;DHT22;62136;-35.664;-63.766;2023-04-25T11:18:05;19.80;56.60
59975;DHT22;62136;-35.664;-63.766;2023-04-25T11:20:34;19.80;56.60
59975;DHT22;62136;-35.664;-63.766;2023-04-25T11:23:01;19.90;56.70
59975;DHT22;62136;-35.664;-63.766;2023-04-25T11:25:28;19.80;56.70
59975;DHT22;62136;-35.664;-63.766;2023-04-25T11:27:58;19.80;56.90
59975;DHT22;62136;-35.664;-63.766;2023-04-25T11:30:26;19.80;57.00
59975;DHT22;62136;-35.664;-63.766;2023-04-25T11:32:55;19.80;56.90
59975;DHT22;62136;-35.664;-63.766;2023-04-25T11:35:23;19.80;57.10
59975;DHT22;62136;-35.664;-63.766;2023-04-25T11:37:51;19.80;57.10
59975;DHT22;62136;-35.664;-63.766;2023-04-25T11:40:18;19.80;57.30
59975;DHT22;62136;-35.664;-63.766;2023-04-25T11:42:47;19.80;57.30
59975;DHT22;62136;-35.664;-63.766;2023-04-25T11:45:14;19.80;57.50
59975;DHT22;62136;-35.664;-63.766;2023-04-25T11:47:41;19.80;57.60
59975;DHT22;62136;-35.664;-63.766;2023-04-25T11:50:09;19.80;57.60
59975;DHT22;62136;-35.664;-63.766;2023-04-25T11:52:40;19.80;57.70
59975;DHT22;62136;-35.664;-63.766;2023-04-25T11:55:15;19.80;57.70
59975;DHT22;62136;-35.664;-63.766;2023-04-25T11:57:44;19.80;57.80
59975;DHT22;62136;-35.664;-63.766;2023-04-25T12:00:19;19.80;58.00
59975;DHT22;62136;-35.664;-63.766;2023-04-25T12:02:51;19.80;58.10
59975;DHT22;62136;-35.664;-63.766;2023-04-25T12:05:19;19.80;58.10
59975;DHT22;62136;-35.664;-63.766;2023-04-25T12:07:46;19.80;58.20
59975;DHT22;62136;-35.664;-63.766;2023-04-25T12:10:16;19.80;58.30
59975;DHT22;62136;-35.664;-63.766;2023-04-25T12:12:45;19.80;58.30
59975;DHT22;62136;-35.664;-63.766;2023-04-25T12:15:23;19.80;58.40
59975;DHT22;62136;-35.664;-63.766;2023-04-25T12:17:53;19.90;58.60
59975;DHT22;62136;-35.664;-63.766;2023-04-25T12:20:26;19.80;58.70
59975;DHT22;62136;-35.664;-63.766;2023-04-25T12:22:53;19.90;58.90
59975;DHT22;62136;-35.664;-63.766;2023-04-25T12:25:41;19.90;59.00
59975;DHT22;62136;-35.664;-63.766;2023-04-25T12:28:18;19.90;59.10
59975;DHT22;62136;-35.664;-63.766;2023-04-25T12:31:02;19.90;59.50
59975;DHT22;62136;-35.664;-63.766;2023-04-25T12:33:31;20.00;60.10
59975;DHT22;62136;-35.664;-63.766;2023-04-25T12:35:59;20.00;61.00
59975;DHT22;62136;-35.664;-63.766;2023-04-25T12:38:28;20.00;61.50
59975;DHT22;62136;-35.664;-63.766;2023-04-25T12:41:00;20.10;62.60
59975;DHT22;62136;-35.664;-63.766;2023-04-25T12:43:29;20.10;62.90
59975;DHT22;62136;-35.664;-63.766;2023-04-25T12:45:56;20.10;63.90
59975;DHT22;62136;-35.664;-63.766;2023-04-25T12:48:24;20.20;65.00
59975;DHT22;62136;-35.664;-63.766;2023-04-25T12:50:51;20.20;65.10
59975;DHT22;62136;-35.664;-63.766;2023-04-25T12:53:20;20.20;65.70
59975;DHT22;62136;-35.664;-63.766;2023-04-25T12:55:49;20.20;66.30
59975;DHT22;62136;-35.664;-63.766;2023-04-25T12:58:18;20.30;66.90
59975;DHT22;62136;-35.664;-63.766;2023-04-25T13:00:46;20.30;67.00
59975;DHT22;62136;-35.664;-63.766;2023-04-25T13:03:13;20.40;67.50
59975;DHT22;62136;-35.664;-63.766;2023-04-25T13:05:41;20.50;69.20
59975;DHT22;62136;-35.664;-63.766;2023-04-25T13:08:08;20.60;69.90
59975;DHT22;62136;-35.664;-63.766;2023-04-25T13:10:36;20.60;70.10
59975;DHT22;62136;-35.664;-63.766;2023-04-25T13:13:04;20.60;71.20
59975;DHT22;62136;-35.664;-63.766;2023-04-25T13:15:31;20.70;70.70
59975;DHT22;62136;-35.664;-63.766;2023-04-25T13:17:58;20.70;72.00
59975;DHT22;62136;-35.664;-63.766;2023-04-25T13:20:25;20.80;72.00
59975;DHT22;62136;-35.664;-63.766;2023-04-25T13:22:52;20.90;74.10
59975;DHT22;62136;-35.664;-63.766;2023-04-25T13:25:19;21.00;75.20
59975;DHT22;62136;-35.664;-63.766;2023-04-25T13:27:48;21.10;75.60
59975;DHT22;62136;-35.664;-63.766;2023-04-25T13:30:16;21.30;76.90
59975;DHT22;62136;-35.664;-63.766;2023-04-25T13:32:45;21.40;78.40
59975;DHT22;62136;-35.664;-63.766;2023-04-25T13:35:13;21.50;78.30
59975;DHT22;62136;-35.664;-63.766;2023-04-25T13:37:41;21.60;78.00
59975;DHT22;62136;-35.664;-63.766;2023-04-25T13:40:10;21.70;78.30
59975;DHT22;62136;-35.664;-63.766;2023-04-25T13:42:38;21.80;78.00
59975;DHT22;62136;-35.664;-63.766;2023-04-25T13:45:07;21.90;77.70
59975;DHT22;62136;-35.664;-63.766;2023-04-25T13:47:34;22.00;77.30
59975;DHT22;62136;-35.664;-63.766;2023-04-25T13:50:02;22.00;77.80
59975;DHT22;62136;-35.664;-63.766;2023-04-25T13:52:31;22.10;76.80
59975;DHT22;62136;-35.664;-63.766;2023-04-25T13:54:58;22.10;74.90
59975;DHT22;62136;-35.664;-63.766;2023-04-25T13:57:25;22.10;75.50
59975;DHT22;62136;-35.664;-63.766;2023-04-25T13:59:54;22.20;75.50
59975;DHT22;62136;-35.664;-63.766;2023-04-25T14:02:21;22.10;74.70
59975;DHT22;62136;-35.664;-63.766;2023-04-25T14:04:49;22.20;77.40
59975;DHT22;62136;-35.664;-63.766;2023-04-25T14:07:18;22.20;75.30
59975;DHT22;62136;-35.664;-63.766;2023-04-25T14:09:48;22.30;77.80
59975;DHT22;62136;-35.664;-63.766;2023-04-25T14:12:16;22.30;78.50
59975;DHT22;62136;-35.664;-63.766;2023-04-25T14:14:44;22.40;79.80
59975;DHT22;62136;-35.664;-63.766;2023-04-25T14:17:11;22.40;79.80
59975;DHT22;62136;-35.664;-63.766;2023-04-25T14:19:38;22.50;81.50
59975;DHT22;62136;-35.664;-63.766;2023-04-25T14:22:09;22.50;80.00
59975;DHT22;62136;-35.664;-63.766;2023-04-25T14:24:37;22.50;80.00
59975;DHT22;62136;-35.664;-63.766;2023-04-25T14:27:04;22.60;80.70
59975;DHT22;62136;-35.664;-63.766;2023-04-25T14:29:31;22.60;78.50
59975;DHT22;62136;-35.664;-63.766;2023-04-25T14:31:59;22.60;76.10
59975;DHT22;62136;-35.664;-63.766;2023-04-25T14:34:26;22.60;76.80
59975;DHT22;62136;-35.664;-63.766;2023-04-25T14:36:53;22.70;75.90
59975;DHT22;62136;-35.664;-63.766;2023-04-25T14:39:21;22.70;72.80
59975;DHT22;62136;-35.664;-63.766;2023-04-25T14:41:48;22.80;72.50
59975;DHT22;62136;-35.664;-63.766;2023-04-25T14:44:15;22.90;70.70
59975;DHT22;62136;-35.664;-63.766;2023-04-25T14:46:42;22.90;70.30
59975;DHT22;62136;-35.664;-63.766;2023-04-25T14:49:09;22.90;69.00
59975;DHT22;62136;-35.664;-63.766;2023-04-25T14:51:36;23.00;67.10
59975;DHT22;62136;-35.664;-63.766;2023-04-25T14:54:04;23.00;68.20
59975;DHT22;62136;-35.664;-63.766;2023-04-25T14:56:32;23.00;69.50
59975;DHT22;62136;-35.664;-63.766;2023-04-25T14:58:59;23.00;67.90
59975;DHT22;62136;-35.664;-63.766;2023-04-25T15:01:26;23.00;67.00